sensor_id;sensor_type;location;lat;lon;timestamp;pressure;altitude;pressure_sealevel;temperature;humidity
69127;BME280;56688;50.234;19.292;2023-10-08T00:02:25;98202.55;;;16.78;80.40
69127;BME280;56688;50.234;19.292;2023-10-08T00:04:53;98204.92;;;16.71;80.44
69127;BME280;56688;50.234;19.292;2023-10-08T00:07:37;98200.30;;;16.65;80.56
69127;BME280;56688;50.234;19.292;2023-10-08T00:10:06;98203.51;;;16.60;80.82
69127;BME280;56688;50.234;19.292;2023-10-08T00:12:34;98205.40;;;16.56;80.88
69127;BME280;56688;50.234;19.292;2023-10-08T00:15:01;98200.27;;;16.53;80.80
69127;BME280;56688;50.234;19.292;2023-10-08T00:17:34;98198.11;;;16.48;80.60
69127;BME280;56688;50.234;19.292;2023-10-08T00:20:01;98200.25;;;16.43;80.85
69127;BME280;56688;50.234;19.292;2023-10-08T00:22:30;98197.06;;;16.36;81.11
69127;BME280;56688;50.234;19.292;2023-10-08T00:25:03;98190.15;;;16.32;81.35
69127;BME280;56688;50.234;19.292;2023-10-08T00:27:38;98185.56;;;16.29;81.65
69127;BME280;56688;50.234;19.292;2023-10-08T00:30:06;98185.98;;;16.26;81.55
69127;BME280;56688;50.234;19.292;2023-10-08T00:32:44;98186.11;;;16.19;81.56
69127;BME280;56688;50.234;19.292;2023-10-08T00:35:12;98186.76;;;16.12;81.62
69127;BME280;56688;50.234;19.292;2023-10-08T00:37:40;98188.45;;;16.04;81.66
69127;BME280;56688;50.234;19.292;2023-10-08T00:40:08;98188.58;;;15.96;82.10
69127;BME280;56688;50.234;19.292;2023-10-08T00:42:38;98187.39;;;15.95;82.28
69127;BME280;56688;50.234;19.292;2023-10-08T00:45:12;98193.65;;;15.89;82.03
69127;BME280;56688;50.234;19.292;2023-10-08T00:47:41;98194.98;;;15.77;82.49
69127;BME280;56688;50.234;19.292;2023-10-08T00:50:10;98191.71;;;15.74;83.01
69127;BME280;56688;50.234;19.292;2023-10-08T00:52:48;98193.17;;;15.73;83.09
69127;BME280;56688;50.234;19.292;2023-10-08T00:55:27;98189.77;;;15.72;83.22
69127;BME280;56688;50.234;19.292;2023-10-08T00:57:57;98194.29;;;15.68;83.21
69127;BME280;56688;50.234;19.292;2023-10-08T01:00:26;98198.66;;;15.64;83.37
69127;BME280;56688;50.234;19.292;2023-10-08T01:03:00;98200.66;;;15.63;83.70
69127;BME280;56688;50.234;19.292;2023-10-08T01:05:29;98205.29;;;15.63;83.79
69127;BME280;56688;50.234;19.292;2023-10-08T01:08:11;98208.11;;;15.62;83.59
69127;BME280;56688;50.234;19.292;2023-10-08T01:10:39;98218.52;;;15.62;83.06
69127;BME280;56688;50.234;19.292;2023-10-08T01:13:10;98210.27;;;15.58;82.20
69127;BME280;56688;50.234;19.292;2023-10-08T01:15:41;98208.83;;;15.53;81.51
69127;BME280;56688;50.234;19.292;2023-10-08T01:18:11;98211.27;;;15.46;81.21
69127;BME280;56688;50.234;19.292;2023-10-08T01:20:42;98217.21;;;15.35;80.11
69127;BME280;56688;50.234;19.292;2023-10-08T01:23:19;98223.93;;;15.24;78.58
69127;BME280;56688;50.234;19.292;2023-10-08T01:25:49;98224.13;;;15.13;78.04
69127;BME280;56688;50.234;19.292;2023-10-08T01:28:19;98224.01;;;14.99;77.18
69127;BME280;56688;50.234;19.292;2023-10-08T01:30:58;98222.61;;;14.81;77.06
69127;BME280;56688;50.234;19.292;2023-10-08T01:33:27;98222.36;;;14.68;77.45
69127;BME280;56688;50.234;19.292;2023-10-08T01:35:55;98217.20;;;14.58;77.71
69127;BME280;56688;50.234;19.292;2023-10-08T01:38:32;98220.84;;;14.49;78.05
69127;BME280;56688;50.234;19.292;2023-10-08T01:41:00;98230.06;;;14.39;78.34
69127;BME280;56688;50.234;19.292;2023-10-08T01:43:32;98252.65;;;14.28;78.37
69127;BME280;56688;50.234;19.292;2023-10-08T01:46:02;98251.67;;;14.16;78.28
69127;BME280;56688;50.234;19.292;2023-10-08T01:48:30;98246.40;;;14.04;78.16
69127;BME280;56688;50.234;19.292;2023-10-08T01:51:05;98241.84;;;13.93;78.30
69127;BME280;56688;50.234;19.292;2023-10-08T01:53:38;98244.17;;;13.84;78.28
69127;BME280;56688;50.234;19.292;2023-10-08T01:56:05;98246.54;;;13.74;78.24
69127;BME280;56688;50.234;19.292;2023-10-08T01:58:32;98258.46;;;13.62;78.18
69127;BME280;56688;50.234;19.292;2023-10-08T02:01:00;98265.69;;;13.51;78.26
69127;BME280;56688;50.234;19.292;2023-10-08T02:03:27;98261.96;;;13.40;78.54
69127;BME280;56688;50.234;19.292;2023-10-08T02:05:54;98256.79;;;13.33;79.02
69127;BME280;56688;50.234;19.292;2023-10-08T02:08:26;98261.72;;;13.27;79.13
69127;BME280;56688;50.234;19.292;2023-10-08T02:10:53;98264.66;;;13.20;79.32
69127;BME280;56688;50.234;19.292;2023-10-08T02:13:20;98255.17;;;13.13;79.54
69127;BME280;56688;50.234;19.292;2023-10-08T02:15:50;98260.30;;;13.06;79.53
69127;BME280;56688;50.234;19.292;2023-10-08T02:18:36;98248.35;;;13.00;79.90
69127;BME280;56688;50.234;19.292;2023-10-08T02:21:04;98249.81;;;12.96;80.31
69127;BME280;56688;50.234;19.292;2023-10-08T02:23:32;98262.22;;;12.94;80.35
69127;BME280;56688;50.234;19.292;2023-10-08T02:26:01;98271.84;;;12.92;80.60
69127;BME280;56688;50.234;19.292;2023-10-08T02:28:29;98281.42;;;12.87;80.36
69127;BME280;56688;50.234;19.292;2023-10-08T02:30:56;98286.66;;;12.80;80.22
69127;BME280;56688;50.234;19.292;2023-10-08T02:33:22;98270.47;;;12.74;80.17
69127;BME280;56688;50.234;19.292;2023-10-08T02:35:49;98262.23;;;12.71;80.26
69127;BME280;56688;50.234;19.292;2023-10-08T02:38:20;98262.71;;;12.69;80.46
69127;BME280;56688;50.234;19.292;2023-10-08T02:40:48;98264.91;;;12.67;80.47
69127;BME280;56688;50.234;19.292;2023-10-08T02:43:16;98263.17;;;12.62;80.68
69127;BME280;56688;50.234;19.292;2023-10-08T02:45:44;98275.30;;;12.58;80.82
69127;BME280;56688;50.234;19.292;2023-10-08T02:48:16;98281.77;;;12.55;80.85
69127;BME280;56688;50.234;19.292;2023-10-08T02:50:45;98282.44;;;12.52;80.93
69127;BME280;56688;50.234;19.292;2023-10-08T02:53:12;98274.36;;;12.49;81.04
69127;BME280;56688;50.234;19.292;2023-10-08T02:55:45;98280.27;;;12.46;80.88
69127;BME280;56688;50.234;19.292;2023-10-08T02:58:14;98283.55;;;12.43;80.90
69127;BME280;56688;50.234;19.292;2023-10-08T03:00:43;98288.48;;;12.40;81.07
69127;BME280;56688;50.234;19.292;2023-10-08T03:03:10;98301.71;;;12.37;81.08
69127;BME280;56688;50.234;19.292;2023-10-08T03:05:44;98309.10;;;12.36;81.41
69127;BME280;56688;50.234;19.292;2023-10-08T03:08:14;98310.98;;;12.36;81.47
69127;BME280;56688;50.234;19.292;2023-10-08T03:10:47;98318.70;;;12.36;81.37
69127;BME280;56688;50.234;19.292;2023-10-08T03:13:16;98309.27;;;12.36;81.41
69127;BME280;56688;50.234;19.292;2023-10-08T03:15:43;98307.68;;;12.34;81.57
69127;BME280;56688;50.234;19.292;2023-10-08T03:18:25;98301.16;;;12.31;81.67
69127;BME280;56688;50.234;19.292;2023-10-08T03:20:52;98307.77;;;12.30;81.93
69127;BME280;56688;50.234;19.292;2023-10-08T03:23:19;98315.02;;;12.29;81.98
69127;BME280;56688;50.234;19.292;2023-10-08T03:25:53;98316.70;;;12.28;81.64
69127;BME280;56688;50.234;19.292;2023-10-08T03:28:31;98311.95;;;12.26;81.44
69127;BME280;56688;50.234;19.292;2023-10-08T03:31:01;98314.21;;;12.22;81.21
69127;BME280;56688;50.234;19.292;2023-10-08T03:33:34;98327.80;;;12.18;80.96
69127;BME280;56688;50.234;19.292;2023-10-08T03:36:04;98334.55;;;12.13;81.07
69127;BME280;56688;50.234;19.292;2023-10-08T03:38:36;98361.84;;;12.09;80.94
69127;BME280;56688;50.234;19.292;2023-10-08T03:41:12;98376.70;;;12.02;80.74
69127;BME280;56688;50.234;19.292;2023-10-08T03:43:49;98381.63;;;11.96;80.73
69127;BME280;56688;50.234;19.292;2023-10-08T03:46:30;98387.02;;;11.88;80.73
69127;BME280;56688;50.234;19.292;2023-10-08T03:48:58;98397.82;;;11.81;80.87
69127;BME280;56688;50.234;19.292;2023-10-08T03:51:32;98395.34;;;11.77;81.06
69127;BME280;56688;50.234;19.292;2023-10-08T03:54:09;98402.41;;;11.73;81.32
69127;BME280;56688;50.234;19.292;2023-10-08T03:56:36;98407.37;;;11.71;81.69
69127;BME280;56688;50.234;19.292;2023-10-08T03:59:03;98416.80;;;11.67;81.56
69127;BME280;56688;50.234;19.292;2023-10-08T04:01:41;98419.25;;;11.60;81.44
69127;BME280;56688;50.234;19.292;2023-10-08T04:04:09;98420.48;;;11.55;81.51
69127;BME280;56688;50.234;19.292;2023-10-08T04:06:42;98415.59;;;11.53;81.95
69127;BME280;56688;50.234;19.292;2023-10-08T04:09:18;98433.43;;;11.50;81.81
69127;BME280;56688;50.234;19.292;2023-10-08T04:11:52;98439.78;;;11.47;82.08
69127;BME280;56688;50.234;19.292;2023-10-08T04:14:25;98442.01;;;11.46;81.86
69127;BME280;56688;50.234;19.292;2023-10-08T04:16:52;98430.02;;;11.40;81.85
69127;BME280;56688;50.234;19.292;2023-10-08T04:19:20;98437.64;;;11.35;81.74
69127;BME280;56688;50.234;19.292;2023-10-08T04:21:48;98460.25;;;11.31;81.86
69127;BME280;56688;50.234;19.292;2023-10-08T04:24:22;98473.21;;;11.30;81.86
69127;BME280;56688;50.234;19.292;2023-10-08T04:26:56;98469.91;;;11.29;82.26
69127;BME280;56688;50.234;19.292;2023-10-08T04:29:27;98466.95;;;11.30;82.43
69127;BME280;56688;50.234;19.292;2023-10-08T04:31:59;98462.05;;;11.30;82.58
69127;BME280;56688;50.234;19.292;2023-10-08T04:34:29;98463.19;;;11.28;82.62
69127;BME280;56688;50.234;19.292;2023-10-08T04:36:56;98460.19;;;11.27;82.41
69127;BME280;56688;50.234;19.292;2023-10-08T04:39:28;98459.44;;;11.28;82.51
69127;BME280;56688;50.234;19.292;2023-10-08T04:42:04;98463.65;;;11.28;82.54
69127;BME280;56688;50.234;19.292;2023-10-08T04:44:37;98464.02;;;11.29;82.63
69127;BME280;56688;50.234;19.292;2023-10-08T04:47:06;98463.69;;;11.28;82.54
69127;BME280;56688;50.234;19.292;2023-10-08T04:49:53;98476.28;;;11.25;82.30
69127;BME280;56688;50.234;19.292;2023-10-08T04:52:20;98490.61;;;11.21;82.41
69127;BME280;56688;50.234;19.292;2023-10-08T04:54:52;98511.20;;;11.20;82.40
69127;BME280;56688;50.234;19.292;2023-10-08T04:57:21;98517.21;;;11.23;82.68
69127;BME280;56688;50.234;19.292;2023-10-08T04:59:49;98514.13;;;11.24;82.73
69127;BME280;56688;50.234;19.292;2023-10-08T05:02:18;98514.98;;;11.23;82.57
69127;BME280;56688;50.234;19.292;2023-10-08T05:04:49;98528.80;;;11.18;82.57
69127;BME280;56688;50.234;19.292;2023-10-08T05:07:18;98546.83;;;11.14;82.67
69127;BME280;56688;50.234;19.292;2023-10-08T05:10:06;98559.17;;;11.14;82.99
69127;BME280;56688;50.234;19.292;2023-10-08T05:12:34;98556.54;;;11.14;83.04
69127;BME280;56688;50.234;19.292;2023-10-08T05:15:05;98561.77;;;11.16;83.10
69127;BME280;56688;50.234;19.292;2023-10-08T05:17:40;98556.05;;;11.15;82.62
69127;BME280;56688;50.234;19.292;2023-10-08T05:20:24;98555.13;;;11.09;82.68
69127;BME280;56688;50.234;19.292;2023-10-08T05:23:08;98548.36;;;11.05;82.85
69127;BME280;56688;50.234;19.292;2023-10-08T05:25:52;98533.55;;;11.05;83.13
69127;BME280;56688;50.234;19.292;2023-10-08T05:28:37;98529.96;;;11.10;83.34
69127;BME280;56688;50.234;19.292;2023-10-08T05:31:20;98575.63;;;11.12;83.10
69127;BME280;56688;50.234;19.292;2023-10-08T05:34:02;98595.75;;;11.14;83.19
69127;BME280;56688;50.234;19.292;2023-10-08T05:36:30;98582.38;;;11.11;83.11
69127;BME280;56688;50.234;19.292;2023-10-08T05:39:12;98584.02;;;11.11;83.26
69127;BME280;56688;50.234;19.292;2023-10-08T05:41:54;98592.77;;;11.09;82.77
69127;BME280;56688;50.234;19.292;2023-10-08T05:44:44;98605.21;;;11.08;83.10
69127;BME280;56688;50.234;19.292;2023-10-08T05:47:17;98609.52;;;11.12;83.31
69127;BME280;56688;50.234;19.292;2023-10-08T05:50:01;98615.56;;;11.12;83.25
69127;BME280;56688;50.234;19.292;2023-10-08T05:52:46;98622.90;;;11.10;83.15
69127;BME280;56688;50.234;19.292;2023-10-08T05:55:29;98630.44;;;11.04;82.92
69127;BME280;56688;50.234;19.292;2023-10-08T05:58:04;98640.35;;;11.02;83.03
69127;BME280;56688;50.234;19.292;2023-10-08T06:00:51;98635.30;;;11.03;83.09
69127;BME280;56688;50.234;19.292;2023-10-08T06:03:34;98629.52;;;11.00;82.90
69127;BME280;56688;50.234;19.292;2023-10-08T06:06:07;98630.25;;;10.99;83.25
69127;BME280;56688;50.234;19.292;2023-10-08T06:08:42;98643.21;;;10.99;82.99
69127;BME280;56688;50.234;19.292;2023-10-08T06:11:19;98637.97;;;10.95;82.82
69127;BME280;56688;50.234;19.292;2023-10-08T06:14:01;98645.98;;;10.97;83.15
69127;BME280;56688;50.234;19.292;2023-10-08T06:16:30;98655.73;;;11.00;83.30
69127;BME280;56688;50.234;19.292;2023-10-08T06:19:08;98663.97;;;11.04;83.18
69127;BME280;56688;50.234;19.292;2023-10-08T06:21:38;98670.71;;;11.09;83.02
69127;BME280;56688;50.234;19.292;2023-10-08T06:24:07;98680.80;;;11.11;82.78
69127;BME280;56688;50.234;19.292;2023-10-08T06:26:37;98686.39;;;11.11;82.70
69127;BME280;56688;50.234;19.292;2023-10-08T06:29:12;98694.75;;;11.17;82.75
69127;BME280;56688;50.234;19.292;2023-10-08T06:31:55;98692.48;;;11.22;82.61
69127;BME280;56688;50.234;19.292;2023-10-08T06:34:23;98695.60;;;11.26;82.49
69127;BME280;56688;50.234;19.292;2023-10-08T06:36:56;98702.75;;;11.28;81.96
69127;BME280;56688;50.234;19.292;2023-10-08T06:39:25;98701.21;;;11.29;82.25
69127;BME280;56688;50.234;19.292;2023-10-08T06:41:53;98706.86;;;11.31;82.21
69127;BME280;56688;50.234;19.292;2023-10-08T06:44:22;98717.41;;;11.32;82.18
69127;BME280;56688;50.234;19.292;2023-10-08T06:46:49;98720.42;;;11.34;82.16
69127;BME280;56688;50.234;19.292;2023-10-08T06:49:19;98726.34;;;11.35;81.32
69127;BME280;56688;50.234;19.292;2023-10-08T06:51:51;98734.33;;;11.35;81.66
69127;BME280;56688;50.234;19.292;2023-10-08T06:54:18;98740.43;;;11.33;81.13
69127;BME280;56688;50.234;19.292;2023-10-08T06:56:45;98755.86;;;11.34;81.47
69127;BME280;56688;50.234;19.292;2023-10-08T06:59:15;98762.20;;;11.33;81.07
69127;BME280;56688;50.234;19.292;2023-10-08T07:01:44;98756.55;;;11.27;80.76
69127;BME280;56688;50.234;19.292;2023-10-08T07:04:14;98756.52;;;11.24;80.80
69127;BME280;56688;50.234;19.292;2023-10-08T07:06:42;98756.95;;;11.25;80.80
69127;BME280;56688;50.234;19.292;2023-10-08T07:09:13;98755.75;;;11.32;81.21
69127;BME280;56688;50.234;19.292;2023-10-08T07:11:56;98757.27;;;11.36;81.23
69127;BME280;56688;50.234;19.292;2023-10-08T07:14:25;98758.73;;;11.39;81.14
69127;BME280;56688;50.234;19.292;2023-10-08T07:16:59;98764.80;;;11.43;81.23
69127;BME280;56688;50.234;19.292;2023-10-08T07:19:28;98769.58;;;11.43;81.02
69127;BME280;56688;50.234;19.292;2023-10-08T07:22:14;98773.55;;;11.39;80.75
69127;BME280;56688;50.234;19.292;2023-10-08T07:24:56;98774.95;;;11.43;80.91
69127;BME280;56688;50.234;19.292;2023-10-08T07:27:25;98780.09;;;11.36;80.61
69127;BME280;56688;50.234;19.292;2023-10-08T07:29:59;98778.95;;;11.26;80.74
69127;BME280;56688;50.234;19.292;2023-10-08T07:32:29;98795.14;;;11.16;81.12
69127;BME280;56688;50.234;19.292;2023-10-08T07:34:57;98809.65;;;11.09;81.37
69127;BME280;56688;50.234;19.292;2023-10-08T07:37:41;98819.86;;;11.12;81.95
69127;BME280;56688;50.234;19.292;2023-10-08T07:40:10;98812.50;;;11.19;82.30
69127;BME280;56688;50.234;19.292;2023-10-08T07:42:39;98814.27;;;11.31;82.44
69127;BME280;56688;50.234;19.292;2023-10-08T07:45:06;98818.64;;;11.37;82.32
69127;BME280;56688;50.234;19.292;2023-10-08T07:47:34;98821.91;;;11.43;81.30
69127;BME280;56688;50.234;19.292;2023-10-08T07:50:01;98830.39;;;11.48;81.31
69127;BME280;56688;50.234;19.292;2023-10-08T07:52:38;98829.95;;;11.58;81.62
69127;BME280;56688;50.234;19.292;2023-10-08T07:55:09;98832.95;;;11.72;81.40
69127;BME280;56688;50.234;19.292;2023-10-08T07:57:36;98839.10;;;11.85;81.33
69127;BME280;56688;50.234;19.292;2023-10-08T08:00:03;98841.58;;;11.95;80.76
69127;BME280;56688;50.234;19.292;2023-10-08T08:02:46;98838.30;;;12.04;80.32
69127;BME280;56688;50.234;19.292;2023-10-08T08:05:13;98847.73;;;12.07;79.60
69127;BME280;56688;50.234;19.292;2023-10-08T08:07:44;98853.08;;;12.06;78.31
69127;BME280;56688;50.234;19.292;2023-10-08T08:10:16;98863.38;;;12.06;78.35
69127;BME280;56688;50.234;19.292;2023-10-08T08:12:45;98873.73;;;12.09;78.11
69127;BME280;56688;50.234;19.292;2023-10-08T08:15:12;98874.48;;;12.10;77.17
69127;BME280;56688;50.234;19.292;2023-10-08T08:17:42;98882.50;;;12.15;77.09
69127;BME280;56688;50.234;19.292;2023-10-08T08:20:10;98886.14;;;12.63;78.16
69127;BME280;56688;50.234;19.292;2023-10-08T08:22:44;98881.69;;;13.22;76.79
69127;BME280;56688;50.234;19.292;2023-10-08T08:25:21;98883.23;;;13.78;74.93
69127;BME280;56688;50.234;19.292;2023-10-08T08:28:04;98882.16;;;14.35;73.23
69127;BME280;56688;50.234;19.292;2023-10-08T08:30:33;98881.34;;;14.75;71.03
69127;BME280;56688;50.234;19.292;2023-10-08T08:33:03;98882.67;;;15.08;68.50
69127;BME280;56688;50.234;19.292;2023-10-08T08:35:38;98881.09;;;15.14;65.87
69127;BME280;56688;50.234;19.292;2023-10-08T08:38:05;98880.25;;;15.20;65.83
69127;BME280;56688;50.234;19.292;2023-10-08T08:40:36;98881.70;;;15.24;65.69
69127;BME280;56688;50.234;19.292;2023-10-08T08:43:05;98886.34;;;15.20;65.18
69127;BME280;56688;50.234;19.292;2023-10-08T08:45:35;98885.66;;;15.00;64.21
69127;BME280;56688;50.234;19.292;2023-10-08T08:48:02;98894.75;;;14.91;65.58
69127;BME280;56688;50.234;19.292;2023-10-08T08:50:30;98900.05;;;14.85;65.96
69127;BME280;56688;50.234;19.292;2023-10-08T08:52:58;98902.16;;;14.76;65.97
69127;BME280;56688;50.234;19.292;2023-10-08T08:55:26;98904.42;;;14.66;66.04
69127;BME280;56688;50.234;19.292;2023-10-08T08:57:55;98916.01;;;14.65;66.42
69127;BME280;56688;50.234;19.292;2023-10-08T09:00:23;98919.95;;;14.79;66.91
69127;BME280;56688;50.234;19.292;2023-10-08T09:02:54;98916.89;;;14.88;66.64
69127;BME280;56688;50.234;19.292;2023-10-08T09:05:22;98919.60;;;14.96;67.27
69127;BME280;56688;50.234;19.292;2023-10-08T09:10:26;98922.28;;;15.17;65.94
69127;BME280;56688;50.234;19.292;2023-10-08T09:12:56;98920.79;;;15.31;67.18
69127;BME280;56688;50.234;19.292;2023-10-08T09:15:27;98925.71;;;15.46;66.56
69127;BME280;56688;50.234;19.292;2023-10-08T09:17:55;98928.90;;;15.60;65.53
69127;BME280;56688;50.234;19.292;2023-10-08T09:20:23;98929.26;;;15.75;64.37
69127;BME280;56688;50.234;19.292;2023-10-08T09:25:34;98934.55;;;15.76;59.53
69127;BME280;56688;50.234;19.292;2023-10-08T09:28:02;98935.23;;;15.85;58.28
69127;BME280;56688;50.234;19.292;2023-10-08T09:30:30;98937.23;;;16.04;56.45
69127;BME280;56688;50.234;19.292;2023-10-08T09:32:57;98941.23;;;16.28;55.06
69127;BME280;56688;50.234;19.292;2023-10-08T09:35:25;98940.36;;;16.43;54.15
69127;BME280;56688;50.234;19.292;2023-10-08T09:37:54;98943.50;;;16.35;53.83
69127;BME280;56688;50.234;19.292;2023-10-08T09:40:21;98953.16;;;16.20;53.53
69127;BME280;56688;50.234;19.292;2023-10-08T09:42:49;98960.61;;;15.98;53.39
69127;BME280;56688;50.234;19.292;2023-10-08T09:45:17;98968.05;;;15.70;51.74
69127;BME280;56688;50.234;19.292;2023-10-08T09:47:50;98968.23;;;15.50;51.87
69127;BME280;56688;50.234;19.292;2023-10-08T09:50:28;98969.77;;;15.56;52.29
69127;BME280;56688;50.234;19.292;2023-10-08T09:55:33;98960.20;;;15.83;51.77
69127;BME280;56688;50.234;19.292;2023-10-08T09:58:00;98970.54;;;15.74;50.61
69127;BME280;56688;50.234;19.292;2023-10-08T10:00:28;98968.29;;;15.76;50.90
69127;BME280;56688;50.234;19.292;2023-10-08T10:02:59;98964.90;;;15.75;50.37
69127;BME280;56688;50.234;19.292;2023-10-08T10:05:29;98971.77;;;15.72;50.74
69127;BME280;56688;50.234;19.292;2023-10-08T10:07:57;98969.59;;;15.64;48.43
69127;BME280;56688;50.234;19.292;2023-10-08T10:10:29;98978.18;;;15.54;47.79
69127;BME280;56688;50.234;19.292;2023-10-08T10:12:59;98977.66;;;15.46;47.82
69127;BME280;56688;50.234;19.292;2023-10-08T10:15:27;98980.27;;;15.51;47.47
69127;BME280;56688;50.234;19.292;2023-10-08T10:18:08;98979.18;;;15.58;46.93
69127;BME280;56688;50.234;19.292;2023-10-08T10:20:46;98988.65;;;15.62;47.28
69127;BME280;56688;50.234;19.292;2023-10-08T10:23:37;98991.64;;;15.61;46.52
69127;BME280;56688;50.234;19.292;2023-10-08T10:26:04;99000.33;;;15.58;45.31
69127;BME280;56688;50.234;19.292;2023-10-08T10:28:36;99000.21;;;15.62;45.13
69127;BME280;56688;50.234;19.292;2023-10-08T10:31:04;98997.52;;;15.69;44.43
69127;BME280;56688;50.234;19.292;2023-10-08T10:33:32;99000.91;;;15.77;44.60
69127;BME280;56688;50.234;19.292;2023-10-08T10:36:01;98999.44;;;15.88;42.37
69127;BME280;56688;50.234;19.292;2023-10-08T10:38:29;99000.58;;;15.87;42.40
69127;BME280;56688;50.234;19.292;2023-10-08T10:40:56;99005.27;;;15.96;43.28
69127;BME280;56688;50.234;19.292;2023-10-08T10:43:25;99011.38;;;16.09;41.34
69127;BME280;56688;50.234;19.292;2023-10-08T10:46:00;99007.44;;;16.24;41.06
69127;BME280;56688;50.234;19.292;2023-10-08T10:48:47;99006.69;;;16.35;41.00
69127;BME280;56688;50.234;19.292;2023-10-08T10:51:33;99008.19;;;16.45;39.94
69127;BME280;56688;50.234;19.292;2023-10-08T10:54:00;99006.52;;;16.49;39.59
69127;BME280;56688;50.234;19.292;2023-10-08T10:56:35;99019.71;;;16.49;40.24
69127;BME280;56688;50.234;19.292;2023-10-08T10:59:08;99015.09;;;16.52;40.44
69127;BME280;56688;50.234;19.292;2023-10-08T11:01:50;99015.45;;;16.56;39.26
69127;BME280;56688;50.234;19.292;2023-10-08T11:04:35;99019.13;;;16.58;38.84
69127;BME280;56688;50.234;19.292;2023-10-08T11:07:19;99024.89;;;16.59;38.36
69127;BME280;56688;50.234;19.292;2023-10-08T11:09:48;99022.95;;;16.59;38.17
69127;BME280;56688;50.234;19.292;2023-10-08T11:12:15;99020.13;;;16.66;38.06
69127;BME280;56688;50.234;19.292;2023-10-08T11:14:50;99022.83;;;16.72;38.14
69127;BME280;56688;50.234;19.292;2023-10-08T11:17:24;99022.73;;;16.84;38.25
69127;BME280;56688;50.234;19.292;2023-10-08T11:19:53;99021.98;;;16.99;38.44
69127;BME280;56688;50.234;19.292;2023-10-08T11:22:20;99024.50;;;17.08;37.93
69127;BME280;56688;50.234;19.292;2023-10-08T11:24:50;99026.88;;;17.21;37.87
69127;BME280;56688;50.234;19.292;2023-10-08T11:27:21;99023.86;;;17.34;36.79
69127;BME280;56688;50.234;19.292;2023-10-08T11:30:04;99020.34;;;17.55;36.81
69127;BME280;56688;50.234;19.292;2023-10-08T11:32:38;99020.97;;;17.80;36.27
69127;BME280;56688;50.234;19.292;2023-10-08T11:35:14;99024.05;;;18.03;35.42
69127;BME280;56688;50.234;19.292;2023-10-08T11:37:45;99026.25;;;18.07;34.75
69127;BME280;56688;50.234;19.292;2023-10-08T11:40:23;99027.33;;;18.13;33.78
69127;BME280;56688;50.234;19.292;2023-10-08T11:42:56;99020.51;;;18.03;33.77
69127;BME280;56688;50.234;19.292;2023-10-08T11:45:26;99022.54;;;17.91;34.64
69127;BME280;56688;50.234;19.292;2023-10-08T11:47:54;99023.00;;;17.88;33.35
69127;BME280;56688;50.234;19.292;2023-10-08T11:50:24;99016.87;;;17.89;32.71
69127;BME280;56688;50.234;19.292;2023-10-08T11:52:58;99026.70;;;17.87;33.44
69127;BME280;56688;50.234;19.292;2023-10-08T11:55:31;99029.29;;;17.88;33.23
69127;BME280;56688;50.234;19.292;2023-10-08T11:58:03;99028.40;;;17.96;33.49
69127;BME280;56688;50.234;19.292;2023-10-08T12:00:39;99031.52;;;18.12;33.30
69127;BME280;56688;50.234;19.292;2023-10-08T12:03:13;99034.88;;;18.24;34.50
69127;BME280;56688;50.234;19.292;2023-10-08T12:05:46;99041.82;;;18.41;33.66
69127;BME280;56688;50.234;19.292;2023-10-08T12:08:29;99033.25;;;18.58;33.23
69127;BME280;56688;50.234;19.292;2023-10-08T12:10:56;99038.04;;;18.47;33.75
69127;BME280;56688;50.234;19.292;2023-10-08T12:13:26;99043.48;;;18.26;33.90
69127;BME280;56688;50.234;19.292;2023-10-08T12:15:55;99042.45;;;18.24;33.84
69127;BME280;56688;50.234;19.292;2023-10-08T12:18:38;99048.59;;;18.45;33.71
69127;BME280;56688;50.234;19.292;2023-10-08T12:21:07;99050.44;;;18.81;32.86
69127;BME280;56688;50.234;19.292;2023-10-08T12:23:38;99051.84;;;19.33;32.50
69127;BME280;56688;50.234;19.292;2023-10-08T12:26:05;99052.58;;;19.99;30.27
69127;BME280;56688;50.234;19.292;2023-10-08T12:28:35;99060.28;;;20.61;30.21
69127;BME280;56688;50.234;19.292;2023-10-08T12:31:04;99060.51;;;21.22;29.62
69127;BME280;56688;50.234;19.292;2023-10-08T12:33:31;99057.44;;;21.69;28.29
69127;BME280;56688;50.234;19.292;2023-10-08T12:35:58;99061.61;;;22.16;27.17
69127;BME280;56688;50.234;19.292;2023-10-08T12:38:41;99068.52;;;22.78;26.75
69127;BME280;56688;50.234;19.292;2023-10-08T12:41:10;99067.20;;;23.33;26.37
69127;BME280;56688;50.234;19.292;2023-10-08T12:43:43;99066.46;;;23.37;25.56
69127;BME280;56688;50.234;19.292;2023-10-08T12:46:13;99075.34;;;22.99;26.14
69127;BME280;56688;50.234;19.292;2023-10-08T12:48:45;99077.20;;;22.55;26.08
69127;BME280;56688;50.234;19.292;2023-10-08T12:51:15;99077.73;;;22.44;25.90
69127;BME280;56688;50.234;19.292;2023-10-08T12:53:42;99078.70;;;22.69;24.83
69127;BME280;56688;50.234;19.292;2023-10-08T12:56:17;99078.17;;;22.98;24.49
69127;BME280;56688;50.234;19.292;2023-10-08T12:58:52;99076.67;;;22.96;24.86
69127;BME280;56688;50.234;19.292;2023-10-08T13:01:20;99071.45;;;23.18;24.63
69127;BME280;56688;50.234;19.292;2023-10-08T13:03:47;99074.23;;;23.43;24.54
69127;BME280;56688;50.234;19.292;2023-10-08T13:06:17;99074.89;;;23.17;23.97
69127;BME280;56688;50.234;19.292;2023-10-08T13:08:56;99072.11;;;23.28;23.59
69127;BME280;56688;50.234;19.292;2023-10-08T13:11:26;99070.14;;;23.54;24.03
69127;BME280;56688;50.234;19.292;2023-10-08T13:13:57;99071.24;;;23.51;24.13
69127;BME280;56688;50.234;19.292;2023-10-08T13:16:26;99078.14;;;23.57;24.73
69127;BME280;56688;50.234;19.292;2023-10-08T13:18:53;99076.36;;;23.92;23.79
69127;BME280;56688;50.234;19.292;2023-10-08T13:21:24;99079.95;;;24.33;23.86
69127;BME280;56688;50.234;19.292;2023-10-08T13:23:52;99088.68;;;24.71;23.28